sensor_id;sensor_type;location;lat;lon;timestamp;temperature;humidity
5061;DHT22;2549;52.128;21.068;2023-07-08T00:01:19;21.50;74.00
5061;DHT22;2549;52.128;21.068;2023-07-08T00:03:46;21.50;73.90
5061;DHT22;2549;52.128;21.068;2023-07-08T00:06:19;21.50;73.90
5061;DHT22;2549;52.128;21.068;2023-07-08T00:08:47;21.50;73.90
5061;DHT22;2549;52.128;21.068;2023-07-08T00:11:15;21.50;74.10
5061;DHT22;2549;52.128;21.068;2023-07-08T00:13:42;21.40;74.10
5061;DHT22;2549;52.128;21.068;2023-07-08T00:16:14;21.40;74.20
5061;DHT22;2549;52.128;21.068;2023-07-08T00:18:42;21.40;74.30
5061;DHT22;2549;52.128;21.068;2023-07-08T00:21:13;21.30;74.20
5061;DHT22;2549;52.128;21.068;2023-07-08T00:23:44;21.30;74.40
5061;DHT22;2549;52.128;21.068;2023-07-08T00:26:22;21.30;74.50
5061;DHT22;2549;52.128;21.068;2023-07-08T00:28:50;21.30;74.60
5061;DHT22;2549;52.128;21.068;2023-07-08T00:31:17;21.20;74.70
5061;DHT22;2549;52.128;21.068;2023-07-08T00:33:43;21.20;74.70
5061;DHT22;2549;52.128;21.068;2023-07-08T00:36:15;21.20;74.70
5061;DHT22;2549;52.128;21.068;2023-07-08T00:38:44;21.20;74.70
5061;DHT22;2549;52.128;21.068;2023-07-08T00:41:21;21.20;74.80
5061;DHT22;2549;52.128;21.068;2023-07-08T00:43:54;21.10;75.00
5061;DHT22;2549;52.128;21.068;2023-07-08T00:49:11;21.10;75.30
5061;DHT22;2549;52.128;21.068;2023-07-08T00:51:40;21.10;75.10
5061;DHT22;2549;52.128;21.068;2023-07-08T00:54:18;21.00;75.10
5061;DHT22;2549;52.128;21.068;2023-07-08T00:56:49;21.00;75.20
5061;DHT22;2549;52.128;21.068;2023-07-08T00:59:25;20.90;75.20
5061;DHT22;2549;52.128;21.068;2023-07-08T01:01:54;20.90;75.20
5061;DHT22;2549;52.128;21.068;2023-07-08T01:04:28;20.90;75.30
5061;DHT22;2549;52.128;21.068;2023-07-08T01:06:57;20.80;75.50
5061;DHT22;2549;52.128;21.068;2023-07-08T01:09:34;20.80;76.00
5061;DHT22;2549;52.128;21.068;2023-07-08T01:12:05;20.80;75.90
5061;DHT22;2549;52.128;21.068;2023-07-08T01:14:36;20.70;75.60
5061;DHT22;2549;52.128;21.068;2023-07-08T01:17:04;20.70;75.50
5061;DHT22;2549;52.128;21.068;2023-07-08T01:19:31;20.60;75.70
5061;DHT22;2549;52.128;21.068;2023-07-08T01:22:02;20.50;75.90
5061;DHT22;2549;52.128;21.068;2023-07-08T01:24:30;20.50;76.00
5061;DHT22;2549;52.128;21.068;2023-07-08T01:27:00;20.50;76.30
5061;DHT22;2549;52.128;21.068;2023-07-08T01:29:28;20.50;76.30
5061;DHT22;2549;52.128;21.068;2023-07-08T01:31:56;20.40;76.30
5061;DHT22;2549;52.128;21.068;2023-07-08T01:34:24;20.40;76.80
5061;DHT22;2549;52.128;21.068;2023-07-08T01:36:53;20.40;76.90
5061;DHT22;2549;52.128;21.068;2023-07-08T01:39:23;20.40;77.10
5061;DHT22;2549;52.128;21.068;2023-07-08T01:41:51;20.40;77.20
5061;DHT22;2549;52.128;21.068;2023-07-08T01:44:31;20.30;77.40
5061;DHT22;2549;52.128;21.068;2023-07-08T01:47:04;20.30;77.60
5061;DHT22;2549;52.128;21.068;2023-07-08T01:49:33;20.20;77.50
5061;DHT22;2549;52.128;21.068;2023-07-08T01:52:02;20.20;77.70
5061;DHT22;2549;52.128;21.068;2023-07-08T01:54:30;20.20;77.70
5061;DHT22;2549;52.128;21.068;2023-07-08T01:56:57;20.20;77.90
5061;DHT22;2549;52.128;21.068;2023-07-08T01:59:24;20.20;78.20
5061;DHT22;2549;52.128;21.068;2023-07-08T02:01:52;20.10;78.20
5061;DHT22;2549;52.128;21.068;2023-07-08T02:04:23;20.10;78.40
5061;DHT22;2549;52.128;21.068;2023-07-08T02:06:55;20.10;78.60
5061;DHT22;2549;52.128;21.068;2023-07-08T02:09:22;20.20;78.80
5061;DHT22;2549;52.128;21.068;2023-07-08T02:11:49;20.10;79.10
5061;DHT22;2549;52.128;21.068;2023-07-08T02:14:16;20.10;79.50
5061;DHT22;2549;52.128;21.068;2023-07-08T02:16:43;20.00;79.80
5061;DHT22;2549;52.128;21.068;2023-07-08T02:19:11;20.00;80.00
5061;DHT22;2549;52.128;21.068;2023-07-08T02:21:38;20.00;80.10
5061;DHT22;2549;52.128;21.068;2023-07-08T02:24:08;19.90;80.10
5061;DHT22;2549;52.128;21.068;2023-07-08T02:26:34;20.00;80.20
5061;DHT22;2549;52.128;21.068;2023-07-08T02:29:02;20.00;80.20
5061;DHT22;2549;52.128;21.068;2023-07-08T02:31:29;20.00;80.40
5061;DHT22;2549;52.128;21.068;2023-07-08T02:33:56;20.00;80.60
5061;DHT22;2549;52.128;21.068;2023-07-08T02:36:23;19.90;80.70
5061;DHT22;2549;52.128;21.068;2023-07-08T02:38:49;19.90;80.80
5061;DHT22;2549;52.128;21.068;2023-07-08T02:41:17;19.90;81.00
5061;DHT22;2549;52.128;21.068;2023-07-08T02:43:44;19.80;81.10
5061;DHT22;2549;52.128;21.068;2023-07-08T02:46:11;19.90;81.40
5061;DHT22;2549;52.128;21.068;2023-07-08T02:48:38;19.80;81.50
5061;DHT22;2549;52.128;21.068;2023-07-08T02:51:06;19.80;81.70
5061;DHT22;2549;52.128;21.068;2023-07-08T02:53:33;19.80;81.80
5061;DHT22;2549;52.128;21.068;2023-07-08T02:55:59;19.80;82.00
5061;DHT22;2549;52.128;21.068;2023-07-08T02:58:27;19.80;82.10
5061;DHT22;2549;52.128;21.068;2023-07-08T03:00:55;19.80;82.40
5061;DHT22;2549;52.128;21.068;2023-07-08T03:03:22;19.80;82.50
5061;DHT22;2549;52.128;21.068;2023-07-08T03:06:00;19.80;82.70
5061;DHT22;2549;52.128;21.068;2023-07-08T03:08:28;19.80;82.90
5061;DHT22;2549;52.128;21.068;2023-07-08T03:10:57;19.80;83.30
5061;DHT22;2549;52.128;21.068;2023-07-08T03:13:25;19.70;83.30
5061;DHT22;2549;52.128;21.068;2023-07-08T03:15:52;19.70;83.40
5061;DHT22;2549;52.128;21.068;2023-07-08T03:18:22;19.70;83.60
5061;DHT22;2549;52.128;21.068;2023-07-08T03:20:50;19.70;83.70
5061;DHT22;2549;52.128;21.068;2023-07-08T03:23:17;19.70;83.90
5061;DHT22;2549;52.128;21.068;2023-07-08T03:25:44;19.70;84.00
5061;DHT22;2549;52.128;21.068;2023-07-08T03:28:11;19.70;84.30
5061;DHT22;2549;52.128;21.068;2023-07-08T03:30:42;19.70;84.50
5061;DHT22;2549;52.128;21.068;2023-07-08T03:33:09;19.70;84.80
5061;DHT22;2549;52.128;21.068;2023-07-08T03:35:37;19.70;85.00
5061;DHT22;2549;52.128;21.068;2023-07-08T03:38:07;19.70;85.30
5061;DHT22;2549;52.128;21.068;2023-07-08T03:40:34;19.70;85.50
5061;DHT22;2549;52.128;21.068;2023-07-08T03:43:01;19.70;85.80
5061;DHT22;2549;52.128;21.068;2023-07-08T03:45:28;19.80;86.20
5061;DHT22;2549;52.128;21.068;2023-07-08T03:47:55;19.80;86.20
5061;DHT22;2549;52.128;21.068;2023-07-08T03:50:24;19.80;86.20
5061;DHT22;2549;52.128;21.068;2023-07-08T03:52:53;19.80;86.40
5061;DHT22;2549;52.128;21.068;2023-07-08T03:55:21;19.90;86.60
5061;DHT22;2549;52.128;21.068;2023-07-08T03:57:48;19.80;86.80
5061;DHT22;2549;52.128;21.068;2023-07-08T04:00:15;19.80;87.30
5061;DHT22;2549;52.128;21.068;2023-07-08T04:02:43;19.80;87.50
5061;DHT22;2549;52.128;21.068;2023-07-08T04:05:15;19.90;88.00
5061;DHT22;2549;52.128;21.068;2023-07-08T04:07:42;19.90;88.40
5061;DHT22;2549;52.128;21.068;2023-07-08T04:10:10;19.90;88.90
5061;DHT22;2549;52.128;21.068;2023-07-08T04:12:37;19.90;89.40
5061;DHT22;2549;52.128;21.068;2023-07-08T04:15:06;20.00;90.00
5061;DHT22;2549;52.128;21.068;2023-07-08T04:17:42;20.00;90.10
5061;DHT22;2549;52.128;21.068;2023-07-08T04:20:10;20.00;90.10
5061;DHT22;2549;52.128;21.068;2023-07-08T04:22:37;20.10;90.40
5061;DHT22;2549;52.128;21.068;2023-07-08T04:25:04;20.20;90.60
5061;DHT22;2549;52.128;21.068;2023-07-08T04:27:33;20.20;90.50
5061;DHT22;2549;52.128;21.068;2023-07-08T04:30:00;20.30;90.70
5061;DHT22;2549;52.128;21.068;2023-07-08T04:32:26;20.30;90.80
5061;DHT22;2549;52.128;21.068;2023-07-08T04:34:53;20.40;91.10
5061;DHT22;2549;52.128;21.068;2023-07-08T04:37:20;20.50;90.90
5061;DHT22;2549;52.128;21.068;2023-07-08T04:39:47;20.50;90.80
5061;DHT22;2549;52.128;21.068;2023-07-08T04:42:14;20.60;90.70
5061;DHT22;2549;52.128;21.068;2023-07-08T04:44:44;20.70;91.10
5061;DHT22;2549;52.128;21.068;2023-07-08T04:47:13;20.80;91.50
5061;DHT22;2549;52.128;21.068;2023-07-08T04:49:40;20.90;91.60
5061;DHT22;2549;52.128;21.068;2023-07-08T04:52:10;20.90;91.30
5061;DHT22;2549;52.128;21.068;2023-07-08T04:54:37;21.00;90.70
5061;DHT22;2549;52.128;21.068;2023-07-08T04:57:04;21.10;90.40
5061;DHT22;2549;52.128;21.068;2023-07-08T04:59:31;21.20;90.10
5061;DHT22;2549;52.128;21.068;2023-07-08T05:02:01;21.20;89.00
5061;DHT22;2549;52.128;21.068;2023-07-08T05:04:28;21.30;88.40
5061;DHT22;2549;52.128;21.068;2023-07-08T05:06:55;21.30;87.70
5061;DHT22;2549;52.128;21.068;2023-07-08T05:09:22;21.40;87.30
5061;DHT22;2549;52.128;21.068;2023-07-08T05:11:52;21.40;87.50
5061;DHT22;2549;52.128;21.068;2023-07-08T05:14:19;21.50;87.60
5061;DHT22;2549;52.128;21.068;2023-07-08T05:16:46;21.50;87.80
5061;DHT22;2549;52.128;21.068;2023-07-08T05:19:14;21.60;88.20
5061;DHT22;2549;52.128;21.068;2023-07-08T05:21:41;21.60;87.90
5061;DHT22;2549;52.128;21.068;2023-07-08T05:24:09;21.70;88.10
5061;DHT22;2549;52.128;21.068;2023-07-08T05:26:36;21.70;88.00
5061;DHT22;2549;52.128;21.068;2023-07-08T05:29:03;21.80;87.90
5061;DHT22;2549;52.128;21.068;2023-07-08T05:31:33;21.80;87.50
5061;DHT22;2549;52.128;21.068;2023-07-08T05:34:04;21.90;86.90
5061;DHT22;2549;52.128;21.068;2023-07-08T05:36:30;21.90;85.90
5061;DHT22;2549;52.128;21.068;2023-07-08T05:38:58;22.00;85.70
5061;DHT22;2549;52.128;21.068;2023-07-08T05:41:25;22.00;84.50
5061;DHT22;2549;52.128;21.068;2023-07-08T05:43:51;22.00;84.70
5061;DHT22;2549;52.128;21.068;2023-07-08T05:46:18;22.00;84.20
5061;DHT22;2549;52.128;21.068;2023-07-08T05:48:45;22.10;84.50
5061;DHT22;2549;52.128;21.068;2023-07-08T05:51:12;22.20;84.60
5061;DHT22;2549;52.128;21.068;2023-07-08T05:53:39;22.20;84.60
5061;DHT22;2549;52.128;21.068;2023-07-08T05:56:06;22.20;84.20
5061;DHT22;2549;52.128;21.068;2023-07-08T05:58:32;22.20;83.70
5061;DHT22;2549;52.128;21.068;2023-07-08T06:00:59;22.30;83.50
5061;DHT22;2549;52.128;21.068;2023-07-08T06:03:27;22.30;82.80
5061;DHT22;2549;52.128;21.068;2023-07-08T06:05:54;22.40;82.50
5061;DHT22;2549;52.128;21.068;2023-07-08T06:08:22;22.40;81.50
5061;DHT22;2549;52.128;21.068;2023-07-08T06:10:49;22.50;81.60
5061;DHT22;2549;52.128;21.068;2023-07-08T06:13:16;22.50;81.00
5061;DHT22;2549;52.128;21.068;2023-07-08T06:15:43;22.50;80.20
5061;DHT22;2549;52.128;21.068;2023-07-08T06:18:10;22.60;80.60
5061;DHT22;2549;52.128;21.068;2023-07-08T06:20:37;22.60;80.70
5061;DHT22;2549;52.128;21.068;2023-07-08T06:23:04;22.60;79.30
5061;DHT22;2549;52.128;21.068;2023-07-08T06:25:31;22.70;78.80
5061;DHT22;2549;52.128;21.068;2023-07-08T06:27:59;22.70;78.40
5061;DHT22;2549;52.128;21.068;2023-07-08T06:30:25;22.80;78.40
5061;DHT22;2549;52.128;21.068;2023-07-08T06:32:52;22.80;78.20
5061;DHT22;2549;52.128;21.068;2023-07-08T06:35:19;22.80;78.20
5061;DHT22;2549;52.128;21.068;2023-07-08T06:37:46;22.80;78.20
5061;DHT22;2549;52.128;21.068;2023-07-08T06:40:13;22.80;78.40
5061;DHT22;2549;52.128;21.068;2023-07-08T06:42:40;22.80;77.70
5061;DHT22;2549;52.128;21.068;2023-07-08T06:45:07;22.90;77.20
5061;DHT22;2549;52.128;21.068;2023-07-08T06:47:34;22.90;77.40
5061;DHT22;2549;52.128;21.068;2023-07-08T06:50:01;23.00;77.60
5061;DHT22;2549;52.128;21.068;2023-07-08T06:52:28;23.00;77.40
5061;DHT22;2549;52.128;21.068;2023-07-08T06:55:01;23.00;76.50
5061;DHT22;2549;52.128;21.068;2023-07-08T06:57:31;23.00;75.00
5061;DHT22;2549;52.128;21.068;2023-07-08T06:59:58;23.10;74.80
5061;DHT22;2549;52.128;21.068;2023-07-08T07:02:25;23.10;74.90
5061;DHT22;2549;52.128;21.068;2023-07-08T07:04:52;23.20;74.80
5061;DHT22;2549;52.128;21.068;2023-07-08T07:07:19;23.20;74.70
5061;DHT22;2549;52.128;21.068;2023-07-08T07:09:46;23.20;73.60
5061;DHT22;2549;52.128;21.068;2023-07-08T07:12:13;23.30;73.80
5061;DHT22;2549;52.128;21.068;2023-07-08T07:14:40;23.30;73.60
5061;DHT22;2549;52.128;21.068;2023-07-08T07:17:09;23.30;72.50
5061;DHT22;2549;52.128;21.068;2023-07-08T07:19:37;23.40;72.90
5061;DHT22;2549;52.128;21.068;2023-07-08T07:22:04;23.40;72.40
5061;DHT22;2549;52.128;21.068;2023-07-08T07:24:32;23.50;72.60
5061;DHT22;2549;52.128;21.068;2023-07-08T07:26:59;23.50;71.20
5061;DHT22;2549;52.128;21.068;2023-07-08T07:29:26;23.60;71.90
5061;DHT22;2549;52.128;21.068;2023-07-08T07:31:53;23.60;71.60
5061;DHT22;2549;52.128;21.068;2023-07-08T07:34:21;23.60;70.50
5061;DHT22;2549;52.128;21.068;2023-07-08T07:36:48;23.60;69.80
5061;DHT22;2549;52.128;21.068;2023-07-08T07:39:15;23.60;69.60
5061;DHT22;2549;52.128;21.068;2023-07-08T07:41:42;23.70;69.60
5061;DHT22;2549;52.128;21.068;2023-07-08T07:44:09;23.70;70.10
5061;DHT22;2549;52.128;21.068;2023-07-08T07:46:35;23.70;67.60
5061;DHT22;2549;52.128;21.068;2023-07-08T07:49:02;23.80;68.40
5061;DHT22;2549;52.128;21.068;2023-07-08T07:51:29;23.80;68.00
5061;DHT22;2549;52.128;21.068;2023-07-08T07:53:56;23.90;68.60
5061;DHT22;2549;52.128;21.068;2023-07-08T07:56:23;24.00;69.30
5061;DHT22;2549;52.128;21.068;2023-07-08T07:58:51;24.00;68.80
5061;DHT22;2549;52.128;21.068;2023-07-08T08:01:18;24.00;65.20
5061;DHT22;2549;52.128;21.068;2023-07-08T08:03:48;24.10;64.90
5061;DHT22;2549;52.128;21.068;2023-07-08T08:06:21;24.10;65.00
5061;DHT22;2549;52.128;21.068;2023-07-08T08:08:48;24.20;64.60
5061;DHT22;2549;52.128;21.068;2023-07-08T08:11:15;24.30;64.60
5061;DHT22;2549;52.128;21.068;2023-07-08T08:13:42;24.30;64.90
5061;DHT22;2549;52.128;21.068;2023-07-08T08:16:09;24.30;64.50
5061;DHT22;2549;52.128;21.068;2023-07-08T08:18:36;24.40;63.90
5061;DHT22;2549;52.128;21.068;2023-07-08T08:21:03;24.40;65.40
5061;DHT22;2549;52.128;21.068;2023-07-08T08:23:30;24.50;65.30
5061;DHT22;2549;52.128;21.068;2023-07-08T08:25:57;24.50;64.60
5061;DHT22;2549;52.128;21.068;2023-07-08T08:28:24;24.50;64.40
5061;DHT22;2549;52.128;21.068;2023-07-08T08:30:51;24.60;65.00
5061;DHT22;2549;52.128;21.068;2023-07-08T08:33:18;24.60;65.20
5061;DHT22;2549;52.128;21.068;2023-07-08T08:35:46;24.60;64.40
5061;DHT22;2549;52.128;21.068;2023-07-08T08:38:13;24.60;64.10
5061;DHT22;2549;52.128;21.068;2023-07-08T08:40:41;24.60;63.40
5061;DHT22;2549;52.128;21.068;2023-07-08T08:43:34;24.70;63.80
5061;DHT22;2549;52.128;21.068;2023-07-08T08:51:28;24.90;60.90
5061;DHT22;2549;52.128;21.068;2023-07-08T08:53:58;24.90;60.80
5061;DHT22;2549;52.128;21.068;2023-07-08T08:56:37;25.00;61.00
5061;DHT22;2549;52.128;21.068;2023-07-08T08:59:15;25.00;61.40
5061;DHT22;2549;52.128;21.068;2023-07-08T09:01:44;24.90;60.30
5061;DHT22;2549;52.128;21.068;2023-07-08T09:04:12;24.90;59.30
5061;DHT22;2549;52.128;21.068;2023-07-08T09:06:42;25.00;59.70
5061;DHT22;2549;52.128;21.068;2023-07-08T09:09:24;25.10;59.30
5061;DHT22;2549;52.128;21.068;2023-07-08T09:11:59;25.30;60.20
5061;DHT22;2549;52.128;21.068;2023-07-08T09:14:31;25.30;58.30
5061;DHT22;2549;52.128;21.068;2023-07-08T09:19:37;25.50;59.10
5061;DHT22;2549;52.128;21.068;2023-07-08T09:22:14;25.50;58.50
5061;DHT22;2549;52.128;21.068;2023-07-08T09:24:59;25.70;57.20
5061;DHT22;2549;52.128;21.068;2023-07-08T09:27:28;25.80;57.20
5061;DHT22;2549;52.128;21.068;2023-07-08T09:29:56;25.70;57.40
5061;DHT22;2549;52.128;21.068;2023-07-08T09:32:26;25.70;58.30
5061;DHT22;2549;52.128;21.068;2023-07-08T09:34:56;25.70;58.70
5061;DHT22;2549;52.128;21.068;2023-07-08T09:37:31;25.70;58.70
5061;DHT22;2549;52.128;21.068;2023-07-08T09:40:14;25.70;59.70
5061;DHT22;2549;52.128;21.068;2023-07-08T09:42:42;25.70;59.10
5061;DHT22;2549;52.128;21.068;2023-07-08T09:45:17;25.70;59.40
5061;DHT22;2549;52.128;21.068;2023-07-08T09:47:45;25.70;59.20
5061;DHT22;2549;52.128;21.068;2023-07-08T09:50:28;25.70;58.30
5061;DHT22;2549;52.128;21.068;2023-07-08T09:52:56;25.80;58.50
5061;DHT22;2549;52.128;21.068;2023-07-08T09:55:25;25.80;59.50
5061;DHT22;2549;52.128;21.068;2023-07-08T09:57:53;25.80;59.80
5061;DHT22;2549;52.128;21.068;2023-07-08T10:00:31;25.80;59.50
5061;DHT22;2549;52.128;21.068;2023-07-08T10:03:11;25.90;60.90
5061;DHT22;2549;52.128;21.068;2023-07-08T10:05:41;25.90;61.00
5061;DHT22;2549;52.128;21.068;2023-07-08T10:08:16;26.00;60.00
5061;DHT22;2549;52.128;21.068;2023-07-08T10:10:47;26.00;57.90
5061;DHT22;2549;52.128;21.068;2023-07-08T10:13:22;26.10;57.60
5061;DHT22;2549;52.128;21.068;2023-07-08T10:15:54;26.10;58.20
5061;DHT22;2549;52.128;21.068;2023-07-08T10:18:28;26.20;57.90
5061;DHT22;2549;52.128;21.068;2023-07-08T10:23:57;26.40;57.70
5061;DHT22;2549;52.128;21.068;2023-07-08T10:26:31;26.50;57.80
5061;DHT22;2549;52.128;21.068;2023-07-08T10:31:55;26.80;56.20
5061;DHT22;2549;52.128;21.068;2023-07-08T10:37:36;26.80;56.60
5061;DHT22;2549;52.128;21.068;2023-07-08T10:45:58;26.70;59.00
5061;DHT22;2549;52.128;21.068;2023-07-08T11:05:02;26.70;56.60
5061;DHT22;2549;52.128;21.068;2023-07-08T11:07:40;26.80;56.10
5061;DHT22;2549;52.128;21.068;2023-07-08T11:10:29;26.80;56.10
5061;DHT22;2549;52.128;21.068;2023-07-08T11:13:11;26.80;56.30
5061;DHT22;2549;52.128;21.068;2023-07-08T11:18:59;26.90;56.30
5061;DHT22;2549;52.128;21.068;2023-07-08T11:21:38;26.90;55.80
5061;DHT22;2549;52.128;21.068;2023-07-08T11:26:55;27.00;55.50
5061;DHT22;2549;52.128;21.068;2023-07-08T11:31:51;27.00;56.60
5061;DHT22;2549;52.128;21.068;2023-07-08T11:34:19;27.00;55.20
5061;DHT22;2549;52.128;21.068;2023-07-08T11:36:49;27.10;55.90
5061;DHT22;2549;52.128;21.068;2023-07-08T11:39:46;27.20;56.10
5061;DHT22;2549;52.128;21.068;2023-07-08T11:44:55;27.40;54.30
5061;DHT22;2549;52.128;21.068;2023-07-08T11:47:39;27.50;54.20
5061;DHT22;2549;52.128;21.068;2023-07-08T11:50:23;27.60;54.90
5061;DHT22;2549;52.128;21.068;2023-07-08T11:52:58;27.60;55.30
5061;DHT22;2549;52.128;21.068;2023-07-08T11:55:59;27.60;55.40
5061;DHT22;2549;52.128;21.068;2023-07-08T11:58:51;27.60;54.70
5061;DHT22;2549;52.128;21.068;2023-07-08T12:03:50;27.70;54.30
5061;DHT22;2549;52.128;21.068;2023-07-08T12:08:55;27.70;55.20
5061;DHT22;2549;52.128;21.068;2023-07-08T12:11:44;27.80;54.00
5061;DHT22;2549;52.128;21.068;2023-07-08T12:14:11;27.80;55.20
5061;DHT22;2549;52.128;21.068;2023-07-08T12:16:39;27.80;55.10
5061;DHT22;2549;52.128;21.068;2023-07-08T12:19:09;27.90;53.90
5061;DHT22;2549;52.128;21.068;2023-07-08T12:21:37;28.00;53.20
5061;DHT22;2549;52.128;21.068;2023-07-08T12:24:05;28.20;53.30
5061;DHT22;2549;52.128;21.068;2023-07-08T12:26:35;28.30;52.80
5061;DHT22;2549;52.128;21.068;2023-07-08T12:29:02;28.30;53.20
5061;DHT22;2549;52.128;21.068;2023-07-08T12:31:30;28.30;53.10
5061;DHT22;2549;52.128;21.068;2023-07-08T12:33:59;28.20;53.90
5061;DHT22;2549;52.128;21.068;2023-07-08T12:36:28;28.30;53.60
5061;DHT22;2549;52.128;21.068;2023-07-08T12:38:58;28.30;53.40
5061;DHT22;2549;52.128;21.068;2023-07-08T12:41:31;28.30;53.60
5061;DHT22;2549;52.128;21.068;2023-07-08T12:44:00;28.40;54.00
5061;DHT22;2549;52.128;21.068;2023-07-08T12:46:28;28.40;53.30
5061;DHT22;2549;52.128;21.068;2023-07-08T12:48:55;28.50;53.50
5061;DHT22;2549;52.128;21.068;2023-07-08T12:51:25;28.50;53.70
5061;DHT22;2549;52.128;21.068;2023-07-08T12:53:53;28.50;53.70
5061;DHT22;2549;52.128;21.068;2023-07-08T12:56:23;28.60;52.90
5061;DHT22;2549;52.128;21.068;2023-07-08T12:58:54;28.60;52.90
5061;DHT22;2549;52.128;21.068;2023-07-08T13:01:25;28.70;53.10
5061;DHT22;2549;52.128;21.068;2023-07-08T13:03:56;28.70;52.20
5061;DHT22;2549;52.128;21.068;2023-07-08T13:06:29;28.70;52.60
5061;DHT22;2549;52.128;21.068;2023-07-08T13:09:47;28.70;52.30
5061;DHT22;2549;52.128;21.068;2023-07-08T13:11:50;28.70;51.90
5061;DHT22;2549;52.128;21.068;2023-07-08T13:14:19;28.60;52.00
5061;DHT22;2549;52.128;21.068;2023-07-08T13:16:50;28.60;51.90
5061;DHT22;2549;52.128;21.068;2023-07-08T13:19:18;28.70;52.20
5061;DHT22;2549;52.128;21.068;2023-07-08T13:21:50;28.80;52.50
5061;DHT22;2549;52.128;21.068;2023-07-08T13:24:17;28.90;51.80
5061;DHT22;2549;52.128;21.068;2023-07-08T13:26:48;29.00;51.90
5061;DHT22;2549;52.128;21.068;2023-07-08T13:29:17;29.00;51.60
5061;DHT22;2549;52.128;21.068;2023-07-08T13:31:48;29.10;51.20
5061;DHT22;2549;52.128;21.068;2023-07-08T13:34:22;29.20;50.80
5061;DHT22;2549;52.128;21.068;2023-07-08T13:36:50;29.30;50.60
5061;DHT22;2549;52.128;21.068;2023-07-08T13:39:26;29.40;51.20
5061;DHT22;2549;52.128;21.068;2023-07-08T13:41:55;29.60;50.80
5061;DHT22;2549;52.128;21.068;2023-07-08T13:44:22;29.60;50.20
5061;DHT22;2549;52.128;21.068;2023-07-08T13:49:24;29.60;50.20
5061;DHT22;2549;52.128;21.068;2023-07-08T13:51:52;29.50;49.60
5061;DHT22;2549;52.128;21.068;2023-07-08T13:56:52;29.50;50.50
5061;DHT22;2549;52.128;21.068;2023-07-08T13:59:23;29.50;51.40
5061;DHT22;2549;52.128;21.068;2023-07-08T14:01:52;29.50;51.80
5061;DHT22;2549;52.128;21.068;2023-07-08T14:04:28;29.50;54.20
5061;DHT22;2549;52.128;21.068;2023-07-08T14:06:55;29.40;51.70
5061;DHT22;2549;52.128;21.068;2023-07-08T14:09:23;29.30;51.80
5061;DHT22;2549;52.128;21.068;2023-07-08T14:11:51;29.30;52.10
5061;DHT22;2549;52.128;21.068;2023-07-08T14:14:19;29.30;51.40
5061;DHT22;2549;52.128;21.068;2023-07-08T14:16:48;29.20;51.20
5061;DHT22;2549;52.128;21.068;2023-07-08T14:19:28;29.20;50.90
5061;DHT22;2549;52.128;21.068;2023-07-08T14:22:01;29.40;50.30
5061;DHT22;2549;52.128;21.068;2023-07-08T14:24:28;29.40;50.40
5061;DHT22;2549;52.128;21.068;2023-07-08T14:26:56;29.30;50.60
5061;DHT22;2549;52.128;21.068;2023-07-08T14:33:04;29.20;50.00
5061;DHT22;2549;52.128;21.068;2023-07-08T14:35:32;29.20;50.40
5061;DHT22;2549;52.128;21.068;2023-07-08T14:38:00;29.30;50.40
5061;DHT22;2549;52.128;21.068;2023-07-08T14:40:34;29.30;50.40
5061;DHT22;2549;52.128;21.068;2023-07-08T14:45:53;29.50;50.30
5061;DHT22;2549;52.128;21.068;2023-07-08T14:48:21;29.50;50.00
5061;DHT22;2549;52.128;21.068;2023-07-08T14:50:50;29.50;50.30
5061;DHT22;2549;52.128;21.068;2023-07-08T14:53:18;29.40;49.80
5061;DHT22;2549;52.128;21.068;2023-07-08T14:55:47;29.50;51.00
5061;DHT22;2549;52.128;21.068;2023-07-08T14:58:22;29.50;50.00
5061;DHT22;2549;52.128;21.068;2023-07-08T15:00:51;29.50;49.90
5061;DHT22;2549;52.128;21.068;2023-07-08T15:03:18;29.40;50.10
5061;DHT22;2549;52.128;21.068;2023-07-08T15:05:45;29.40;49.70
5061;DHT22;2549;52.128;21.068;2023-07-08T15:08:12;29.40;50.30
5061;DHT22;2549;52.128;21.068;2023-07-08T15:10:45;29.30;49.80
5061;DHT22;2549;52.128;21.068;2023-07-08T15:13:14;29.40;49.70
5061;DHT22;2549;52.128;21.068;2023-07-08T15:15:41;29.30;49.70
5061;DHT22;2549;52.128;21.068;2023-07-08T15:18:15;29.30;50.00
5061;DHT22;2549;52.128;21.068;2023-07-08T15:20:43;29.30;50.00
5061;DHT22;2549;52.128;21.068;2023-07-08T15:23:11;29.30;51.60
5061;DHT22;2549;52.128;21.068;2023-07-08T15:25:43;29.20;49.90
5061;DHT22;2549;52.128;21.068;2023-07-08T15:28:18;29.20;50.80
5061;DHT22;2549;52.128;21.068;2023-07-08T15:30:46;29.20;50.40
5061;DHT22;2549;52.128;21.068;2023-07-08T15:33:15;29.20;50.00
5061;DHT22;2549;52.128;21.068;2023-07-08T15:35:43;29.20;50.10
5061;DHT22;2549;52.128;21.068;2023-07-08T15:38:10;29.30;50.40
5061;DHT22;2549;52.128;21.068;2023-07-08T15:40:38;29.20;50.00
5061;DHT22;2549;52.128;21.068;2023-07-08T15:43:12;29.30;50.50
5061;DHT22;2549;52.128;21.068;2023-07-08T15:45:40;29.30;50.70
5061;DHT22;2549;52.128;21.068;2023-07-08T15:48:14;29.40;50.90
5061;DHT22;2549;52.128;21.068;2023-07-08T15:50:42;29.40;53.70
5061;DHT22;2549;52.128;21.068;2023-07-08T15:53:09;29.40;49.80
5061;DHT22;2549;52.128;21.068;2023-07-08T15:55:40;29.30;52.90
5061;DHT22;2549;52.128;21.068;2023-07-08T15:58:26;29.30;49.40
5061;DHT22;2549;52.128;21.068;2023-07-08T16:00:55;29.30;49.50
5061;DHT22;2549;52.128;21.068;2023-07-08T16:03:27;29.20;49.70
5061;DHT22;2549;52.128;21.068;2023-07-08T16:05:56;29.40;50.80
5061;DHT22;2549;52.128;21.068;2023-07-08T16:08:23;29.40;50.20
5061;DHT22;2549;52.128;21.068;2023-07-08T16:10:57;29.40;49.70
5061;DHT22;2549;52.128;21.068;2023-07-08T16:13:28;29.40;49.70
5061;DHT22;2549;52.128;21.068;2023-07-08T16:15:56;29.30;49.70
5061;DHT22;2549;52.128;21.068;2023-07-08T16:18:23;29.20;49.80
5061;DHT22;2549;52.128;21.068;2023-07-08T16:20:51;29.30;53.90
5061;DHT22;2549;52.128;21.068;2023-07-08T16:23:18;29.30;50.30
5061;DHT22;2549;52.128;21.068;2023-07-08T16:25:48;29.30;49.80
5061;DHT22;2549;52.128;21.068;2023-07-08T16:30:53;29.40;49.40
5061;DHT22;2549;52.128;21.068;2023-07-08T16:33:21;29.40;51.00
5061;DHT22;2549;52.128;21.068;2023-07-08T16:35:49;29.40;49.90
5061;DHT22;2549;52.128;21.068;2023-07-08T16:38:16;29.40;49.20
5061;DHT22;2549;52.128;21.068;2023-07-08T16:40:43;29.50;49.20
5061;DHT22;2549;52.128;21.068;2023-07-08T16:43:23;29.60;49.20
5061;DHT22;2549;52.128;21.068;2023-07-08T16:45:51;29.70;48.70
5061;DHT22;2549;52.128;21.068;2023-07-08T16:48:18;29.70;49.00
5061;DHT22;2549;52.128;21.068;2023-07-08T16:50:45;29.90;48.60
5061;DHT22;2549;52.128;21.068;2023-07-08T16:53:13;29.90;48.40
5061;DHT22;2549;52.128;21.068;2023-07-08T16:55:40;29.90;48.60
5061;DHT22;2549;52.128;21.068;2023-07-08T16:58:10;29.90;48.20
5061;DHT22;2549;52.128;21.068;2023-07-08T17:00:41;29.80;47.80
5061;DHT22;2549;52.128;21.068;2023-07-08T17:03:14;29.90;48.80
5061;DHT22;2549;52.128;21.068;2023-07-08T17:05:42;29.80;48.40
5061;DHT22;2549;52.128;21.068;2023-07-08T17:08:13;29.80;48.30
5061;DHT22;2549;52.128;21.068;2023-07-08T17:10:40;29.70;48.20
5061;DHT22;2549;52.128;21.068;2023-07-08T17:13:08;29.70;48.60